createdAt,value
2023-06-30T00:01:50.579Z,3.17
2023-06-30T00:06:51.935Z,3.17
2023-06-30T00:11:54.294Z,3.25
2023-06-30T00:16:51.817Z,3.08
2023-06-30T00:21:49.662Z,4.10
2023-06-30T00:26:47.016Z,3.25
2023-06-30T00:31:44.417Z,3.40
2023-06-30T00:36:41.775Z,3.00
2023-06-30T00:41:39.132Z,3.60
2023-06-30T00:46:39.408Z,3.47
2023-06-30T00:51:36.902Z,2.95
2023-06-30T00:56:34.829Z,3.58
2023-06-30T01:01:40.456Z,4.13
2023-06-30T01:06:48.808Z,3.75
2023-06-30T01:11:47.433Z,4.25
2023-06-30T01:16:46.963Z,3.88
2023-06-30T01:21:47.964Z,3.63
2023-06-30T01:26:45.260Z,4.13
2023-06-30T01:31:44.987Z,4.25
2023-06-30T01:41:39.988Z,4.03
2023-06-30T01:46:37.613Z,3.88
2023-06-30T01:51:35.011Z,4.30
2023-06-30T01:56:32.282Z,4.75
2023-06-30T02:01:29.813Z,3.80
2023-06-30T02:06:27.222Z,3.85
2023-06-30T02:11:24.484Z,4.28
2023-06-30T02:16:23.587Z,4.43
2023-06-30T02:21:20.901Z,3.65
2023-06-30T02:26:19.036Z,4.30
2023-06-30T02:31:16.171Z,4.25
2023-06-30T02:36:13.690Z,3.97
2023-06-30T02:41:10.991Z,3.95
2023-06-30T02:46:08.168Z,3.78
2023-06-30T02:51:05.406Z,3.65
2023-06-30T02:56:02.678Z,3.92
2023-06-30T03:00:59.920Z,3.58
2023-06-30T03:05:57.195Z,4.03
2023-06-30T03:10:54.546Z,3.72
2023-06-30T03:15:52.046Z,3.88
2023-06-30T03:20:50.437Z,3.70
2023-06-30T03:25:48.275Z,3.85
2023-06-30T03:30:45.811Z,4.03
2023-06-30T03:35:43.664Z,3.63
2023-06-30T03:40:41.893Z,4.25
2023-06-30T03:45:39.738Z,3.83
2023-06-30T03:50:37.280Z,5.03
2023-06-30T03:55:34.720Z,4.15
2023-06-30T04:00:36.960Z,4.03
2023-06-30T04:05:35.585Z,3.90
2023-06-30T04:10:33.824Z,4.38
2023-06-30T04:15:34.015Z,4.60
2023-06-30T04:20:32.213Z,5.13
2023-06-30T04:25:31.830Z,5.85
2023-06-30T04:30:29.118Z,4.75
2023-06-30T04:35:26.717Z,4.93
2023-06-30T04:40:24.173Z,5.75
2023-06-30T04:45:21.888Z,5.53
2023-06-30T04:50:20.030Z,5.40
2023-06-30T04:55:17.379Z,5.72
2023-06-30T05:00:15.220Z,5.07
2023-06-30T05:05:13.871Z,5.40
2023-06-30T05:10:11.623Z,5.55
2023-06-30T05:15:09.473Z,5.93
2023-06-30T05:20:09.471Z,6.00
2023-06-30T05:25:07.698Z,5.50
2023-06-30T05:30:05.531Z,5.32
2023-06-30T05:35:02.754Z,5.75
2023-06-30T05:40:00.344Z,5.15
2023-06-30T05:44:57.707Z,5.60
2023-06-30T05:49:55.150Z,5.13
2023-06-30T05:54:52.895Z,4.90
2023-06-30T05:59:50.173Z,4.82
2023-06-30T06:04:47.830Z,4.72
2023-06-30T06:09:45.187Z,4.90
2023-06-30T06:14:43.155Z,4.35
2023-06-30T06:19:40.752Z,4.93
2023-06-30T06:24:38.062Z,4.22
2023-06-30T06:29:35.302Z,3.80
2023-06-30T06:34:32.709Z,3.75
2023-06-30T06:39:30.059Z,3.60
2023-06-30T06:44:27.414Z,4.07
2023-06-30T06:49:24.580Z,3.83
2023-06-30T06:54:21.877Z,4.00
2023-06-30T06:59:19.390Z,3.65
2023-06-30T07:04:16.724Z,3.40
2023-06-30T07:09:14.028Z,3.95
2023-06-30T07:14:11.261Z,3.63
2023-06-30T07:19:08.651Z,4.07
2023-06-30T07:24:06.152Z,3.20
2023-06-30T07:29:03.384Z,4.28
2023-06-30T07:34:00.693Z,3.80
2023-06-30T07:38:58.017Z,3.28
2023-06-30T07:43:55.360Z,2.92
2023-06-30T07:48:52.709Z,3.13
2023-06-30T07:53:50.038Z,3.13
2023-06-30T07:58:47.327Z,4.00
2023-06-30T08:03:44.715Z,3.65
2023-06-30T08:08:42.365Z,3.85
2023-06-30T08:13:40.052Z,3.80
2023-06-30T08:18:37.430Z,2.83
2023-06-30T08:23:35.188Z,3.38
2023-06-30T08:28:33.127Z,3.58
2023-06-30T08:38:31.108Z,3.35
2023-06-30T08:43:30.471Z,2.90
2023-06-30T08:48:30.388Z,3.00
2023-06-30T08:53:30.555Z,2.97
2023-06-30T08:58:31.084Z,3.47
2023-06-30T09:03:28.772Z,3.20
2023-06-30T09:08:39.937Z,3.17
2023-06-30T09:13:40.497Z,3.40
2023-06-30T09:18:37.796Z,3.00
2023-06-30T09:23:35.852Z,2.90
2023-06-30T09:28:37.044Z,3.58
2023-06-30T09:33:36.525Z,2.80
2023-06-30T09:43:33.873Z,3.13
2023-06-30T09:48:33.388Z,3.00
2023-06-30T09:58:40.634Z,2.70
2023-06-30T10:03:51.693Z,2.33
2023-06-30T10:08:52.175Z,2.97
2023-06-30T10:13:51.500Z,2.53
2023-06-30T10:23:51.031Z,2.47
2023-06-30T10:28:49.165Z,2.83
2023-06-30T10:33:46.555Z,2.17
2023-06-30T10:38:44.873Z,2.83
2023-06-30T10:44:03.521Z,2.40
2023-06-30T10:49:06.635Z,1.70
2023-06-30T10:54:04.233Z,2.42
2023-06-30T10:59:01.772Z,2.40
2023-06-30T11:03:59.659Z,2.40
2023-06-30T11:09:01.607Z,2.35
2023-06-30T11:14:08.269Z,2.47
2023-06-30T11:19:05.663Z,1.95
2023-06-30T11:24:15.554Z,1.92
2023-06-30T11:29:12.953Z,2.25
2023-06-30T11:34:10.649Z,2.40
2023-06-30T11:39:08.047Z,2.95
2023-06-30T11:44:05.740Z,2.67
2023-06-30T11:49:06.474Z,2.33
2023-06-30T11:54:03.851Z,2.47
2023-06-30T11:59:01.557Z,2.65
2023-06-30T12:04:09.997Z,2.90
2023-06-30T12:09:07.955Z,2.67
2023-06-30T12:14:09.448Z,3.00
2023-06-30T12:19:10.408Z,2.45
2023-06-30T12:24:08.945Z,2.90
2023-06-30T12:29:06.513Z,3.67
2023-06-30T12:34:04.030Z,2.63
2023-06-30T12:39:01.273Z,3.03
2023-06-30T12:44:02.317Z,2.67
2023-06-30T12:49:00.073Z,2.03
2023-06-30T12:53:57.314Z,2.72
2023-06-30T12:58:54.571Z,2.60
2023-06-30T13:03:51.893Z,2.72
2023-06-30T13:08:49.154Z,2.85
2023-06-30T13:13:46.428Z,2.63
2023-06-30T13:18:43.781Z,2.65
2023-06-30T13:23:41.021Z,2.70
2023-06-30T13:28:38.495Z,2.75
2023-06-30T13:33:35.850Z,2.95
2023-06-30T13:38:33.343Z,3.17
2023-06-30T13:43:31.120Z,2.70
2023-06-30T13:48:28.851Z,2.22
2023-06-30T13:53:26.423Z,2.67
2023-06-30T13:58:23.761Z,2.60
2023-06-30T14:03:21.055Z,2.78
2023-06-30T14:08:18.412Z,2.58
2023-06-30T14:13:15.822Z,2.78
2023-06-30T14:18:13.223Z,2.25
2023-06-30T14:23:10.677Z,3.03
2023-06-30T14:28:07.884Z,3.25
2023-06-30T14:33:05.130Z,3.15
2023-06-30T14:38:03.194Z,3.22
2023-06-30T14:43:00.905Z,3.78
2023-06-30T14:47:58.936Z,3.35
2023-06-30T14:52:56.713Z,2.80
2023-06-30T14:57:54.132Z,3.33
2023-06-30T15:02:51.697Z,3.55
2023-06-30T15:07:51.939Z,3.60
2023-06-30T15:12:49.324Z,4.18
2023-06-30T15:17:46.745Z,3.25
2023-06-30T15:22:44.354Z,3.30
2023-06-30T15:27:41.586Z,3.28
2023-06-30T15:32:39.015Z,3.75
2023-06-30T15:37:36.379Z,3.58
2023-06-30T15:42:33.701Z,3.42
2023-06-30T15:47:31.135Z,3.22
2023-06-30T15:52:28.701Z,3.70
2023-06-30T15:57:25.940Z,3.28
2023-06-30T16:02:23.307Z,3.72
2023-06-30T16:07:20.702Z,3.13
2023-06-30T16:12:18.046Z,3.35
2023-06-30T16:17:15.485Z,3.78
2023-06-30T16:22:12.946Z,2.85
2023-06-30T16:27:10.313Z,3.85
2023-06-30T16:32:08.518Z,3.80
2023-06-30T16:37:05.932Z,3.88
2023-06-30T16:42:03.470Z,4.40
2023-06-30T16:47:01.199Z,3.80
2023-06-30T16:51:58.596Z,4.32
2023-06-30T16:56:55.818Z,3.38
2023-06-30T17:01:55.876Z,3.67
2023-06-30T17:07:13.954Z,4.05
2023-06-30T17:12:11.385Z,3.88
2023-06-30T17:17:08.876Z,4.55
2023-06-30T17:22:06.669Z,4.22
2023-06-30T17:27:04.003Z,3.90
2023-06-30T17:32:01.485Z,3.97
2023-06-30T17:37:03.111Z,3.60
2023-06-30T17:42:00.955Z,4.45
2023-06-30T17:46:58.971Z,4.13
2023-06-30T17:51:56.556Z,4.45
2023-06-30T17:56:53.837Z,5.53
2023-06-30T18:01:51.521Z,4.10
2023-06-30T18:07:07.613Z,4.03
2023-06-30T18:12:05.876Z,4.07
2023-06-30T18:17:03.626Z,4.53
2023-06-30T18:22:01.154Z,4.80
2023-06-30T18:26:59.604Z,3.90
2023-06-30T18:32:00.245Z,4.78
2023-06-30T18:36:58.321Z,5.47
2023-06-30T18:41:56.173Z,5.45
2023-06-30T18:46:53.783Z,5.15
2023-06-30T18:51:53.158Z,5.25
2023-06-30T18:56:50.482Z,5.72
2023-06-30T19:01:48.234Z,5.60
2023-06-30T19:06:45.615Z,6.13
2023-06-30T19:11:42.957Z,5.80
2023-06-30T19:16:40.381Z,5.25
2023-06-30T19:21:37.750Z,5.05
2023-06-30T19:26:35.260Z,5.20
2023-06-30T19:31:32.901Z,5.25
2023-06-30T19:36:33.120Z,5.50
2023-06-30T19:41:30.405Z,4.78
2023-06-30T19:46:30.692Z,5.03
2023-06-30T19:51:28.001Z,6.13
2023-06-30T19:56:25.301Z,5.00
2023-06-30T20:01:26.860Z,4.82
2023-06-30T20:06:24.755Z,4.93
2023-06-30T20:11:22.030Z,5.28
2023-06-30T20:16:19.997Z,5.35
2023-06-30T20:21:20.447Z,4.53
2023-06-30T20:31:17.335Z,4.05
2023-06-30T20:36:15.072Z,5.40
2023-06-30T20:41:13.145Z,5.50
2023-06-30T20:46:10.465Z,5.78
2023-06-30T20:51:07.812Z,4.85
2023-06-30T20:56:05.114Z,4.88
2023-06-30T21:01:02.347Z,4.95
2023-06-30T21:05:59.698Z,5.03
2023-06-30T21:10:56.984Z,4.25
2023-06-30T21:15:54.369Z,5.47
2023-06-30T21:20:51.744Z,5.03
2023-06-30T21:25:49.004Z,5.82
2023-06-30T21:30:46.959Z,4.90
2023-06-30T21:35:45.222Z,5.67
2023-06-30T21:40:42.895Z,5.95
2023-06-30T21:45:40.219Z,5.78
2023-06-30T21:50:37.429Z,5.13
2023-06-30T21:55:35.353Z,5.45
2023-06-30T22:00:32.750Z,5.40
2023-06-30T22:05:30.453Z,4.88
2023-06-30T22:10:27.853Z,5.05
2023-06-30T22:15:25.420Z,4.47
2023-06-30T22:20:25.957Z,5.47
2023-06-30T22:25:23.381Z,5.07
2023-06-30T22:30:20.804Z,4.85
2023-06-30T22:35:18.315Z,6.97
2023-06-30T22:40:17.613Z,5.47
2023-06-30T22:45:15.799Z,4.75
2023-06-30T22:50:13.204Z,5.22
2023-06-30T22:55:10.924Z,5.50
2023-06-30T23:00:09.075Z,5.78
2023-06-30T23:05:07.081Z,5.82
2023-06-30T23:10:04.567Z,6.50
2023-06-30T23:15:01.759Z,7.07
2023-06-30T23:19:59.062Z,6.10
2023-06-30T23:24:57.122Z,6.50
2023-06-30T23:29:58.074Z,7.10
2023-06-30T23:34:55.402Z,6.85
2023-06-30T23:39:53.293Z,7.18
2023-06-30T23:44:50.628Z,7.30
2023-06-30T23:49:48.591Z,6.50
2023-06-30T23:54:46.312Z,7.95
2023-06-30T23:59:43.794Z,7.45
